Time;durP1;ratioP1;P1;durP2;ratioP2;P2;SDS_P1;SDS_P2;PMS_P1;PMS_P2;Temp;Humidity;BMP_temperature;BMP_pressure;BME280_temperature;BME280_humidity;BME280_pressure;Samples;Min_cycle;Max_cycle;Signal;HPM_P1;HPM_P2
2024/02/10 00:00:16;;;;;;;16.93;11.70;;;5.00;99.90;;;;;;5038322;28;20570;-61
2024/02/10 00:02:46;;;;;;;16.23;10.57;;;5.00;99.90;;;;;;5036863;28;20478;-62
2024/02/10 00:05:14;;;;;;;15.40;11.10;;;5.00;99.90;;;;;;5036862;28;20558;-61
2024/02/10 00:07:45;;;;;;;17.23;11.87;;;5.00;99.90;;;;;;5034116;28;20893;-61
2024/02/10 00:10:14;;;;;;;15.30;10.77;;;5.00;99.90;;;;;;5037382;28;20482;-60
2024/02/10 00:12:42;;;;;;;20.13;13.23;;;5.00;99.90;;;;;;5036649;28;20491;-61
2024/02/10 00:15:11;;;;;;;14.50;11.47;;;5.00;99.90;;;;;;5035382;28;20489;-61
2024/02/10 00:17:40;;;;;;;18.17;12.53;;;5.00;99.90;;;;;;5036059;28;20566;-61
2024/02/10 00:20:15;;;;;;;20.07;13.13;;;5.10;99.90;;;;;;5037779;28;20528;-61
2024/02/10 00:22:44;;;;;;;17.10;11.50;;;5.00;99.90;;;;;;5033207;28;20559;-61
2024/02/10 00:25:12;;;;;;;16.60;11.80;;;5.00;99.90;;;;;;5037079;28;20471;-60
2024/02/10 00:27:41;;;;;;;17.50;12.17;;;5.00;99.90;;;;;;5036851;28;20481;-61
2024/02/10 00:30:10;;;;;;;15.67;11.07;;;5.00;99.90;;;;;;5038748;28;20894;-61
2024/02/10 00:32:38;;;;;;;16.00;10.70;;;5.10;99.90;;;;;;5035114;28;20480;-62
2024/02/10 00:35:07;;;;;;;16.30;11.13;;;5.00;99.90;;;;;;5027617;28;20888;-62
2024/02/10 00:37:36;;;;;;;15.23;11.10;;;5.10;99.90;;;;;;5038494;28;21026;-61
2024/02/10 00:40:05;;;;;;;16.77;12.00;;;5.00;99.90;;;;;;5036814;28;20470;-61
2024/02/10 00:42:33;;;;;;;16.90;11.40;;;5.10;99.90;;;;;;5037748;28;20487;-62
2024/02/10 00:45:03;;;;;;;15.20;11.10;;;5.10;99.90;;;;;;5036364;28;20549;-61
2024/02/10 00:47:31;;;;;;;17.20;11.53;;;5.10;99.90;;;;;;5038050;28;20467;-61
2024/02/10 00:50:01;;;;;;;15.80;11.20;;;5.10;99.90;;;;;;5035734;28;20479;-62
2024/02/10 00:52:29;;;;;;;16.40;11.20;;;5.10;99.90;;;;;;5032874;28;20478;-62
2024/02/10 00:54:58;;;;;;;17.13;11.37;;;5.10;99.90;;;;;;5036735;28;20832;-62
2024/02/10 00:57:28;;;;;;;18.17;11.87;;;5.10;99.90;;;;;;5035936;28;20562;-61
2024/02/10 00:59:57;;;;;;;16.17;11.00;;;5.10;99.90;;;;;;5034451;28;20476;-61
2024/02/10 01:02:25;;;;;;;16.67;11.83;;;5.10;99.90;;;;;;5040267;28;20516;-61
2024/02/10 01:04:54;;;;;;;17.80;11.77;;;5.10;99.90;;;;;;5041134;28;20470;-61
2024/02/10 01:07:24;;;;;;;16.00;11.67;;;5.10;99.90;;;;;;5038502;28;20983;-61
2024/02/10 01:09:53;;;;;;;17.67;11.20;;;5.10;99.90;;;;;;5039289;28;20579;-61
2024/02/10 01:12:22;;;;;;;16.00;11.13;;;5.10;99.90;;;;;;5038894;28;20522;-61
2024/02/10 01:14:50;;;;;;;15.97;11.53;;;5.10;99.90;;;;;;5039443;28;20462;-61
2024/02/10 01:17:18;;;;;;;16.73;12.00;;;5.10;99.90;;;;;;5040073;28;21010;-61
2024/02/10 01:19:49;;;;;;;17.63;11.63;;;5.10;99.90;;;;;;5041868;28;20513;-61
2024/02/10 01:22:22;;;;;;;16.77;11.20;;;5.20;99.90;;;;;;5040513;28;20482;-61
2024/02/10 01:24:53;;;;;;;17.10;12.43;;;5.20;99.90;;;;;;5039575;28;20469;-61
2024/02/10 01:27:26;;;;;;;16.73;11.57;;;5.20;99.90;;;;;;5040562;28;20503;-61
2024/02/10 01:29:56;;;;;;;17.27;11.33;;;5.20;99.90;;;;;;5040494;28;20481;-61
2024/02/10 01:32:25;;;;;;;17.53;11.80;;;5.20;99.90;;;;;;5037949;28;20489;-61
2024/02/10 01:34:54;;;;;;;17.10;12.27;;;5.20;99.90;;;;;;5039565;28;20466;-61
2024/02/10 01:37:22;;;;;;;17.80;11.77;;;5.20;99.90;;;;;;5040584;28;20491;-61
2024/02/10 01:39:53;;;;;;;17.97;11.97;;;5.20;99.90;;;;;;5041036;28;20489;-62
2024/02/10 01:42:37;;;;;;;18.17;11.93;;;5.20;99.90;;;;;;5041478;28;20478;-62
2024/02/10 01:45:08;;;;;;;16.73;11.50;;;5.20;99.90;;;;;;5035000;28;20470;-61
2024/02/10 01:47:38;;;;;;;18.70;12.53;;;5.30;99.90;;;;;;5039669;28;20549;-61
2024/02/10 01:50:07;;;;;;;16.53;10.97;;;5.30;99.90;;;;;;5038517;28;20471;-61
2024/02/10 01:52:37;;;;;;;19.20;13.50;;;5.20;99.90;;;;;;5038746;28;20513;-61
2024/02/10 01:55:05;;;;;;;17.83;12.77;;;5.20;99.90;;;;;;5039885;28;20970;-61
2024/02/10 01:57:35;;;;;;;18.77;11.73;;;5.30;99.90;;;;;;5033495;28;20475;-61
2024/02/10 02:00:05;;;;;;;19.73;12.80;;;5.30;99.90;;;;;;5036949;28;20593;-61
2024/02/10 02:02:34;;;;;;;19.20;12.90;;;5.30;99.90;;;;;;5038860;28;20474;-61
2024/02/10 02:05:04;;;;;;;18.37;12.90;;;5.30;99.90;;;;;;5038561;28;20470;-62
2024/02/10 02:07:33;;;;;;;14.60;11.43;;;5.30;99.90;;;;;;5033481;28;20933;-61
2024/02/10 02:10:03;;;;;;;16.30;11.80;;;5.30;99.90;;;;;;5039292;28;20470;-61
2024/02/10 02:12:31;;;;;;;17.50;12.13;;;5.30;99.90;;;;;;5036638;28;20509;-61
2024/02/10 02:15:01;;;;;;;17.83;11.80;;;5.30;99.90;;;;;;5038222;28;20549;-61
2024/02/10 02:17:29;;;;;;;17.87;13.10;;;5.30;99.90;;;;;;5037275;28;20462;-61
2024/02/10 02:19:57;;;;;;;17.10;12.10;;;5.30;99.90;;;;;;5039368;28;20528;-61
2024/02/10 02:22:25;;;;;;;18.10;11.90;;;5.30;99.90;;;;;;5035561;28;20580;-61
2024/02/10 02:24:55;;;;;;;17.63;12.90;;;5.30;99.90;;;;;;5037807;28;20477;-61
2024/02/10 02:27:23;;;;;;;15.00;11.30;;;5.30;99.90;;;;;;5036986;28;20530;-61
2024/02/10 02:29:50;;;;;;;18.97;12.87;;;5.30;99.90;;;;;;5040129;28;21125;-62
2024/02/10 02:32:18;;;;;;;16.70;12.70;;;5.30;99.90;;;;;;5037117;28;20482;-60
2024/02/10 02:34:47;;;;;;;16.40;11.63;;;5.30;99.90;;;;;;5040320;28;20481;-61
2024/02/10 02:37:15;;;;;;;19.43;12.57;;;5.30;99.90;;;;;;5034293;28;20865;-61
2024/02/10 02:39:44;;;;;;;19.13;12.83;;;5.30;99.90;;;;;;5039827;28;20908;-61
2024/02/10 02:42:13;;;;;;;17.47;12.30;;;5.30;99.90;;;;;;5038103;28;20503;-61
2024/02/10 02:44:44;;;;;;;17.20;11.90;;;5.30;99.90;;;;;;5040768;28;20887;-61
2024/02/10 02:47:12;;;;;;;17.27;12.20;;;5.40;99.90;;;;;;5033983;28;20488;-61
2024/02/10 02:49:40;;;;;;;16.53;11.77;;;5.40;99.90;;;;;;5036840;28;21054;-61
2024/02/10 02:52:08;;;;;;;19.60;11.90;;;5.30;99.90;;;;;;5036690;28;20482;-61
2024/02/10 02:54:36;;;;;;;17.73;11.57;;;5.30;99.90;;;;;;5039731;28;20470;-61
2024/02/10 02:57:05;;;;;;;17.40;12.47;;;5.30;99.90;;;;;;5034035;28;20487;-61
2024/02/10 02:59:34;;;;;;;16.20;11.40;;;5.30;99.90;;;;;;5036548;28;20577;-61
2024/02/10 03:02:05;;;;;;;17.00;11.80;;;5.40;99.90;;;;;;5035614;28;20586;-61
2024/02/10 03:04:33;;;;;;;17.60;11.83;;;5.40;99.90;;;;;;5037928;28;20879;-61
2024/02/10 03:07:01;;;;;;;16.97;12.20;;;5.40;99.90;;;;;;5035510;28;20499;-61
2024/02/10 03:09:29;;;;;;;15.73;11.47;;;5.40;99.90;;;;;;5039817;28;20467;-61
2024/02/10 03:11:57;;;;;;;17.10;12.17;;;5.40;99.90;;;;;;5036853;28;20479;-61
2024/02/10 03:14:25;;;;;;;17.20;12.03;;;5.40;99.90;;;;;;5034836;28;20479;-61
2024/02/10 03:16:55;;;;;;;17.90;12.93;;;5.40;99.90;;;;;;5036650;28;20900;-61
2024/02/10 03:19:23;;;;;;;17.90;12.60;;;5.40;99.90;;;;;;5039370;28;20487;-61
2024/02/10 03:21:51;;;;;;;17.43;12.50;;;5.40;99.90;;;;;;5036075;28;20479;-60
2024/02/10 03:24:19;;;;;;;18.47;13.07;;;5.40;99.90;;;;;;5035286;28;20470;-60
2024/02/10 03:26:47;;;;;;;16.87;12.07;;;5.40;99.90;;;;;;5037540;28;20534;-61
2024/02/10 03:29:15;;;;;;;17.77;12.40;;;5.40;99.90;;;;;;5037100;28;20495;-61
2024/02/10 03:31:43;;;;;;;18.27;13.53;;;5.40;99.90;;;;;;5037435;28;20850;-61
2024/02/10 03:34:13;;;;;;;19.90;13.73;;;5.40;99.90;;;;;;5036249;28;21057;-61
2024/02/10 03:36:41;;;;;;;18.50;13.77;;;5.40;99.90;;;;;;5038661;28;20498;-61
2024/02/10 03:39:09;;;;;;;21.60;13.50;;;5.40;99.90;;;;;;5038837;28;20471;-61
2024/02/10 03:41:37;;;;;;;19.77;12.83;;;5.40;99.90;;;;;;5036149;28;20579;-61
2024/02/10 03:44:05;;;;;;;19.30;13.47;;;5.40;99.90;;;;;;5038365;28;20466;-62
2024/02/10 03:46:33;;;;;;;20.70;13.83;;;5.40;99.90;;;;;;5034844;28;20497;-62
2024/02/10 03:49:01;;;;;;;19.07;12.60;;;5.40;99.90;;;;;;5035008;28;20471;-61
2024/02/10 03:51:31;;;;;;;19.23;13.87;;;5.40;99.90;;;;;;5035311;28;20478;-61
2024/02/10 03:53:59;;;;;;;19.20;13.17;;;5.40;99.90;;;;;;5037903;28;20486;-61
2024/02/10 03:56:27;;;;;;;21.97;13.73;;;5.40;99.90;;;;;;5033634;28;20598;-60
2024/02/10 03:58:56;;;;;;;18.63;13.50;;;5.40;99.90;;;;;;5036969;28;21072;-61
2024/02/10 04:01:24;;;;;;;20.97;13.73;;;5.40;99.90;;;;;;5033366;28;20585;-61
2024/02/10 04:03:55;;;;;;;21.50;13.03;;;5.40;99.90;;;;;;5030351;28;20474;-61
2024/02/10 04:06:24;;;;;;;18.77;13.20;;;5.40;99.90;;;;;;5035701;28;20502;-61
2024/02/10 04:08:53;;;;;;;22.57;15.23;;;5.40;99.90;;;;;;5033417;28;20471;-61
2024/02/10 04:11:23;;;;;;;19.17;13.20;;;5.40;99.90;;;;;;5035954;28;20475;-61
2024/02/10 04:13:52;;;;;;;19.27;13.87;;;5.40;99.90;;;;;;5032213;28;20470;-62
2024/02/10 04:16:20;;;;;;;19.67;13.33;;;5.40;99.90;;;;;;5031158;28;20888;-61
2024/02/10 04:18:49;;;;;;;20.77;14.17;;;5.40;99.90;;;;;;5035083;28;20482;-61
2024/02/10 04:21:17;;;;;;;20.03;13.43;;;5.40;99.90;;;;;;5034631;28;20558;-61
2024/02/10 04:23:45;;;;;;;20.40;13.87;;;5.40;99.90;;;;;;5035308;28;21538;-60
2024/02/10 04:26:15;;;;;;;22.67;14.50;;;5.40;99.90;;;;;;5032380;28;21012;-61
2024/02/10 04:28:43;;;;;;;20.77;14.10;;;5.40;99.90;;;;;;5037983;28;20498;-62
2024/02/10 04:31:13;;;;;;;22.73;15.40;;;5.40;99.90;;;;;;5034168;28;20494;-60
2024/02/10 04:33:50;;;;;;;21.47;13.60;;;5.40;99.90;;;;;;5037904;28;21040;-61
2024/02/10 04:36:20;;;;;;;22.53;14.67;;;5.40;99.90;;;;;;5035320;28;20494;-61
2024/02/10 04:38:48;;;;;;;23.20;14.10;;;5.40;99.90;;;;;;5035000;28;20467;-61
2024/02/10 04:41:18;;;;;;;21.53;13.47;;;5.50;99.90;;;;;;5033396;28;20490;-61
2024/02/10 04:43:46;;;;;;;19.93;14.50;;;5.40;99.90;;;;;;5037927;28;20573;-61
2024/02/10 04:46:16;;;;;;;22.97;16.30;;;5.50;99.90;;;;;;5036449;28;20965;-61
2024/02/10 04:48:47;;;;;;;23.43;15.17;;;5.50;99.90;;;;;;5036706;28;20474;-61
2024/02/10 04:51:16;;;;;;;22.47;14.83;;;5.50;99.90;;;;;;5035003;28;20582;-62
2024/02/10 04:53:44;;;;;;;21.33;14.80;;;5.50;99.90;;;;;;5035975;28;20590;-62
2024/02/10 04:56:18;;;;;;;20.93;14.13;;;5.50;99.90;;;;;;5036217;28;20541;-60
2024/02/10 04:58:48;;;;;;;23.50;15.70;;;5.50;99.90;;;;;;5034923;28;20470;-61
2024/02/10 05:01:19;;;;;;;22.87;14.37;;;5.50;99.90;;;;;;5034977;28;20660;-61
2024/02/10 05:03:48;;;;;;;21.63;15.20;;;5.50;99.90;;;;;;5036723;28;21150;-62
2024/02/10 05:06:16;;;;;;;23.83;15.73;;;5.50;99.90;;;;;;5032899;28;21862;-61
2024/02/10 05:08:45;;;;;;;22.70;15.43;;;5.50;99.90;;;;;;5036589;28;20600;-62
2024/02/10 05:11:13;;;;;;;22.23;15.00;;;5.50;99.90;;;;;;5033637;28;20568;-61
2024/02/10 05:13:43;;;;;;;23.20;15.10;;;5.50;99.90;;;;;;5036924;28;20553;-61
2024/02/10 05:16:11;;;;;;;24.03;14.53;;;5.50;99.90;;;;;;5037416;28;20866;-61
2024/02/10 05:18:39;;;;;;;23.13;15.40;;;5.50;99.90;;;;;;5035341;28;20562;-61
2024/02/10 05:21:07;;;;;;;23.60;15.30;;;5.50;99.90;;;;;;5034990;28;20474;-61
2024/02/10 05:23:37;;;;;;;22.90;14.53;;;5.50;99.90;;;;;;5033808;28;20570;-61
2024/02/10 05:26:05;;;;;;;22.83;14.33;;;5.50;99.90;;;;;;5034267;28;20573;-61
2024/02/10 05:28:33;;;;;;;23.90;15.23;;;5.50;99.90;;;;;;5035509;28;20506;-62
2024/02/10 05:31:04;;;;;;;24.97;16.00;;;5.50;99.90;;;;;;5035888;28;20516;-61
2024/02/10 05:33:32;;;;;;;24.47;15.20;;;5.50;99.90;;;;;;5035851;28;20938;-62
2024/02/10 05:36:00;;;;;;;23.43;14.43;;;5.50;99.90;;;;;;5036860;28;20503;-61
2024/02/10 05:38:28;;;;;;;24.83;15.93;;;5.50;99.90;;;;;;5033399;28;20577;-61
2024/02/10 05:40:56;;;;;;;23.57;14.83;;;5.60;99.90;;;;;;5034632;28;20585;-61
2024/02/10 05:43:24;;;;;;;22.43;15.00;;;5.60;99.90;;;;;;5034621;28;20499;-60
2024/02/10 05:45:52;;;;;;;26.40;17.13;;;5.60;99.90;;;;;;5031270;28;20502;-62
2024/02/10 05:48:29;;;;;;;20.80;14.50;;;5.60;99.90;;;;;;5035521;28;20549;-61
2024/02/10 05:50:59;;;;;;;21.83;14.83;;;5.60;99.90;;;;;;5036261;28;20482;-61
2024/02/10 05:53:27;;;;;;;23.40;15.50;;;5.60;99.90;;;;;;5037400;28;20544;-61
2024/02/10 05:55:55;;;;;;;25.30;15.60;;;5.60;99.90;;;;;;5036094;28;20523;-61
2024/02/10 05:58:23;;;;;;;21.40;14.00;;;5.60;99.90;;;;;;5036731;28;20474;-61
2024/02/10 06:00:52;;;;;;;23.63;15.57;;;5.60;99.90;;;;;;5036400;28;20901;-61
2024/02/10 06:03:26;;;;;;;23.27;15.50;;;5.60;99.90;;;;;;5040216;28;20481;-61
2024/02/10 06:05:54;;;;;;;25.43;15.83;;;5.60;99.90;;;;;;5035206;28;20584;-61
2024/02/10 06:08:23;;;;;;;23.60;15.90;;;5.60;99.90;;;;;;5036572;28;20477;-62
2024/02/10 06:10:53;;;;;;;25.77;16.10;;;5.60;99.90;;;;;;5038795;28;20532;-60
2024/02/10 06:13:23;;;;;;;24.00;15.60;;;5.60;99.90;;;;;;5039123;28;20506;-61
2024/02/10 06:15:52;;;;;;;25.10;15.80;;;5.60;99.90;;;;;;5041043;28;20498;-62
2024/02/10 06:18:29;;;;;;;26.37;15.97;;;5.60;99.90;;;;;;5036182;28;20871;-61
2024/02/10 06:20:59;;;;;;;24.50;15.77;;;5.60;99.90;;;;;;5035710;28;20852;-61
2024/02/10 06:23:27;;;;;;;24.50;14.77;;;5.60;99.90;;;;;;5035559;28;20462;-61
2024/02/10 06:25:55;;;;;;;24.00;15.47;;;5.60;99.90;;;;;;5033846;28;20483;-61
2024/02/10 06:28:23;;;;;;;26.60;17.20;;;5.60;99.90;;;;;;5033560;28;20478;-62
2024/02/10 06:30:54;;;;;;;23.67;16.23;;;5.70;99.90;;;;;;5038429;28;20531;-61
2024/02/10 06:33:23;;;;;;;26.03;15.30;;;5.70;99.90;;;;;;5033645;28;20899;-62
2024/02/10 06:35:51;;;;;;;22.53;14.27;;;5.60;99.90;;;;;;5034170;28;20499;-61
2024/02/10 06:38:19;;;;;;;20.53;14.13;;;5.70;99.90;;;;;;5034966;28;20482;-62
2024/02/10 06:40:47;;;;;;;23.57;16.17;;;5.60;99.90;;;;;;5035504;28;20538;-61
2024/02/10 06:43:17;;;;;;;21.70;14.80;;;5.70;99.90;;;;;;5035408;28;20988;-62
2024/02/10 06:45:46;;;;;;;24.73;15.50;;;5.60;99.90;;;;;;5028079;28;20586;-61
2024/02/10 06:48:14;;;;;;;24.37;15.20;;;5.60;99.90;;;;;;5029341;28;20466;-61
2024/02/10 06:50:44;;;;;;;25.33;16.57;;;5.70;99.90;;;;;;5031007;28;20475;-61
2024/02/10 06:53:14;;;;;;;23.33;15.20;;;5.70;99.90;;;;;;5036249;28;21007;-61
2024/02/10 06:55:42;;;;;;;24.90;15.10;;;5.60;99.90;;;;;;5034217;28;20883;-61
2024/02/10 06:58:11;;;;;;;25.10;15.97;;;5.60;99.90;;;;;;5037443;28;20566;-62
2024/02/10 07:00:40;;;;;;;25.47;16.07;;;5.60;99.90;;;;;;5034433;28;20471;-61
2024/02/10 07:03:09;;;;;;;23.47;15.10;;;5.70;99.90;;;;;;5026388;28;20467;-60
2024/02/10 07:05:38;;;;;;;26.47;16.70;;;5.70;99.90;;;;;;5036439;28;20494;-61
2024/02/10 07:08:11;;;;;;;23.73;15.77;;;5.70;99.90;;;;;;5032674;28;20578;-62
2024/02/10 07:10:39;;;;;;;25.67;15.63;;;5.70;99.90;;;;;;5035215;28;20475;-61
2024/02/10 07:13:07;;;;;;;22.60;14.17;;;5.70;99.90;;;;;;5024366;28;20565;-61
2024/02/10 07:15:35;;;;;;;26.20;16.40;;;5.70;99.90;;;;;;5025989;28;20494;-61
2024/02/10 07:18:06;;;;;;;23.77;15.50;;;5.70;99.90;;;;;;5037041;28;20463;-62
2024/02/10 07:20:35;;;;;;;22.50;14.30;;;5.70;99.90;;;;;;5036456;28;20964;-61
2024/02/10 07:23:04;;;;;;;27.00;15.50;;;5.70;99.90;;;;;;5036665;28;20490;-61
2024/02/10 07:25:37;;;;;;;24.07;15.03;;;5.80;99.90;;;;;;5036843;28;20493;-61
2024/02/10 07:28:08;;;;;;;26.03;15.93;;;5.80;99.90;;;;;;5035911;28;20478;-61
2024/02/10 07:30:36;;;;;;;21.37;14.83;;;5.80;99.90;;;;;;5035112;28;20670;-61
2024/02/10 07:33:08;;;;;;;20.27;13.50;;;5.80;99.90;;;;;;5036022;28;21285;-61
2024/02/10 07:35:38;;;;;;;22.53;15.10;;;5.80;99.90;;;;;;5038909;28;20486;-61
2024/02/10 07:38:06;;;;;;;23.50;15.10;;;5.80;99.90;;;;;;5035788;28;20495;-61
2024/02/10 07:40:35;;;;;;;21.87;14.40;;;5.90;99.90;;;;;;5033751;28;20478;-61
2024/02/10 07:43:05;;;;;;;22.87;14.83;;;5.90;99.90;;;;;;5035304;28;20488;-61
2024/02/10 07:45:34;;;;;;;22.70;13.83;;;5.90;99.90;;;;;;5032877;28;20626;-61
2024/02/10 07:48:03;;;;;;;23.93;15.50;;;5.90;99.90;;;;;;5023487;28;21148;-60
2024/02/10 07:50:31;;;;;;;23.13;15.90;;;5.90;99.90;;;;;;5030851;28;20463;-61
2024/02/10 07:53:03;;;;;;;22.00;14.90;;;5.90;99.90;;;;;;5029940;28;20486;-61
2024/02/10 07:55:35;;;;;;;21.90;15.40;;;5.90;99.90;;;;;;5029785;28;20513;-60
2024/02/10 07:58:07;;;;;;;22.50;15.40;;;6.00;99.90;;;;;;5033997;28;20980;-60
2024/02/10 08:00:35;;;;;;;21.40;14.90;;;6.00;99.90;;;;;;5027406;28;20485;-60
2024/02/10 08:03:03;;;;;;;22.13;14.00;;;6.00;99.90;;;;;;5035519;28;20487;-60
2024/02/10 08:05:32;;;;;;;21.77;14.70;;;6.00;99.90;;;;;;5037890;28;20486;-60
2024/02/10 08:08:01;;;;;;;22.17;14.73;;;6.10;99.90;;;;;;5035604;28;20951;-60
2024/02/10 08:10:29;;;;;;;22.10;13.50;;;6.10;99.90;;;;;;5034471;28;20816;-60
2024/02/10 08:12:59;;;;;;;20.90;14.90;;;6.10;99.90;;;;;;5035650;28;20470;-58
2024/02/10 08:15:30;;;;;;;21.40;14.40;;;6.10;99.90;;;;;;5036695;28;21008;-60
2024/02/10 08:18:05;;;;;;;21.27;14.60;;;6.10;99.90;;;;;;5034949;28;20507;-60
2024/02/10 08:20:34;;;;;;;17.53;12.50;;;6.20;99.90;;;;;;5035192;28;20470;-60
2024/02/10 08:23:02;;;;;;;18.50;14.53;;;6.20;99.90;;;;;;5036086;28;21011;-60
2024/02/10 08:25:30;;;;;;;23.47;14.93;;;6.20;99.90;;;;;;5036442;28;20502;-60
2024/02/10 08:27:59;;;;;;;19.47;14.33;;;6.20;99.90;;;;;;5034790;28;20561;-60
2024/02/10 08:30:31;;;;;;;24.23;15.10;;;6.20;99.90;;;;;;5033213;28;20556;-60
2024/02/10 08:33:00;;;;;;;21.90;14.30;;;6.20;99.90;;;;;;5036358;28;20553;-60
2024/02/10 08:35:28;;;;;;;19.10;13.47;;;6.20;99.90;;;;;;5037440;28;20872;-60
2024/02/10 08:37:57;;;;;;;19.17;13.30;;;6.30;99.90;;;;;;5037819;28;20474;-60
2024/02/10 08:40:25;;;;;;;20.97;13.90;;;6.30;99.90;;;;;;5036048;28;20561;-60
2024/02/10 08:42:54;;;;;;;24.60;14.93;;;6.30;99.90;;;;;;5038239;28;20494;-59
2024/02/10 08:45:22;;;;;;;24.43;15.30;;;6.30;99.90;;;;;;5035108;28;20543;-59
2024/02/10 08:47:51;;;;;;;22.17;14.60;;;6.30;99.90;;;;;;5037132;28;20529;-59
2024/02/10 08:50:19;;;;;;;21.47;14.83;;;6.30;99.90;;;;;;5038004;28;20470;-60
2024/02/10 08:52:48;;;;;;;22.60;14.00;;;6.30;99.90;;;;;;5033338;28;20483;-60
2024/02/10 08:55:16;;;;;;;20.63;15.03;;;6.30;99.90;;;;;;5036164;28;20475;-60
2024/02/10 08:57:46;;;;;;;20.60;14.50;;;6.40;99.90;;;;;;5027111;28;20478;-60
2024/02/10 09:00:15;;;;;;;21.63;14.77;;;6.40;99.90;;;;;;5038190;28;20544;-60
2024/02/10 09:02:45;;;;;;;24.00;15.70;;;6.40;99.90;;;;;;5029732;28;20524;-59
2024/02/10 09:05:14;;;;;;;25.17;15.90;;;6.40;99.90;;;;;;5028377;28;20478;-60
2024/02/10 09:07:43;;;;;;;26.73;15.10;;;6.50;99.90;;;;;;5033720;28;20893;-60
2024/02/10 09:10:11;;;;;;;22.40;15.27;;;6.50;99.90;;;;;;5033866;28;20471;-60
2024/02/10 09:12:39;;;;;;;20.80;13.63;;;6.50;99.90;;;;;;5032347;28;20858;-60
2024/02/10 09:15:08;;;;;;;24.90;16.10;;;6.50;99.90;;;;;;5034338;28;20549;-60
2024/02/10 09:17:36;;;;;;;22.77;14.77;;;6.60;99.90;;;;;;5031467;28;20790;-60
2024/02/10 09:20:08;;;;;;;24.17;16.00;;;6.60;99.90;;;;;;5037193;28;20530;-60
2024/02/10 09:22:38;;;;;;;22.57;15.17;;;6.60;99.90;;;;;;5037560;28;20577;-59
2024/02/10 09:25:07;;;;;;;24.07;14.77;;;6.70;99.90;;;;;;5039651;28;20981;-64
2024/02/10 09:27:35;;;;;;;27.83;16.37;;;6.70;99.90;;;;;;5039839;28;20482;-60
2024/02/10 09:30:04;;;;;;;27.03;16.60;;;6.70;99.90;;;;;;5040355;28;20557;-60
2024/02/10 09:32:32;;;;;;;24.03;15.67;;;6.70;99.90;;;;;;5037476;28;20546;-60
2024/02/10 09:35:03;;;;;;;26.93;16.43;;;6.70;99.90;;;;;;5035311;28;20953;-61
2024/02/10 09:37:31;;;;;;;24.53;15.67;;;6.80;99.90;;;;;;5035218;28;20489;-60
2024/02/10 09:40:02;;;;;;;31.03;18.60;;;6.70;99.90;;;;;;5029542;28;20470;-60
2024/02/10 09:42:33;;;;;;;23.60;16.23;;;6.80;99.90;;;;;;5033268;28;20487;-60
2024/02/10 09:45:01;;;;;;;24.40;15.50;;;6.80;99.90;;;;;;5033998;28;20854;-59
2024/02/10 09:47:29;;;;;;;22.20;14.60;;;6.80;99.90;;;;;;5024640;28;20478;-60
2024/02/10 09:50:00;;;;;;;25.83;15.50;;;6.80;99.90;;;;;;5019926;28;21176;-58
2024/02/10 09:52:28;;;;;;;27.80;16.23;;;6.80;99.90;;;;;;5027695;28;20994;-59
2024/02/10 09:54:56;;;;;;;27.70;17.27;;;6.90;99.90;;;;;;5027661;28;20506;-59
2024/02/10 09:57:27;;;;;;;27.97;17.13;;;6.90;99.90;;;;;;5025147;28;20582;-58
2024/02/10 09:59:55;;;;;;;27.10;16.10;;;6.90;99.90;;;;;;5031402;28;20875;-58
2024/02/10 10:02:23;;;;;;;25.60;15.57;;;6.90;99.90;;;;;;5029917;28;20613;-59
2024/02/10 10:04:51;;;;;;;25.00;16.53;;;6.90;99.90;;;;;;5028608;28;20987;-59
2024/02/10 10:07:20;;;;;;;26.10;15.80;;;7.00;99.90;;;;;;5026461;28;20513;-59
2024/02/10 10:09:48;;;;;;;23.47;15.47;;;7.00;99.90;;;;;;5029414;28;20470;-60
2024/02/10 10:12:18;;;;;;;26.07;15.50;;;7.00;99.90;;;;;;5025516;28;20517;-58
2024/02/10 10:14:48;;;;;;;23.60;16.23;;;7.00;99.90;;;;;;5025221;28;20969;-59
2024/02/10 10:17:16;;;;;;;24.77;15.20;;;7.10;99.90;;;;;;5026315;28;20588;-59
2024/02/10 10:19:45;;;;;;;24.90;15.97;;;7.10;99.90;;;;;;5030463;28;20467;-60
2024/02/10 10:22:17;;;;;;;26.17;15.90;;;7.20;99.90;;;;;;5027475;28;20518;-60
2024/02/10 10:24:46;;;;;;;26.50;17.13;;;7.20;99.90;;;;;;5030553;28;20498;-62
2024/02/10 10:27:16;;;;;;;24.40;15.83;;;7.20;99.90;;;;;;5028933;28;20564;-60
2024/02/10 10:29:46;;;;;;;22.50;14.40;;;7.20;99.90;;;;;;5030919;28;20472;-59
2024/02/10 10:32:18;;;;;;;23.97;15.40;;;7.30;99.90;;;;;;5031267;28;20494;-59
2024/02/10 10:34:48;;;;;;;24.93;16.30;;;7.30;99.90;;;;;;5030904;28;20569;-59
2024/02/10 10:37:20;;;;;;;22.07;14.60;;;7.30;99.90;;;;;;5023350;28;20494;-59
2024/02/10 10:39:50;;;;;;;23.47;15.83;;;7.30;99.90;;;;;;5022092;28;20569;-61
2024/02/10 10:42:20;;;;;;;26.37;16.60;;;7.30;99.90;;;;;;5027964;28;20487;-58
2024/02/10 10:44:50;;;;;;;27.60;15.90;;;7.40;99.90;;;;;;5025512;28;21433;-60
2024/02/10 10:47:23;;;;;;;24.30;15.10;;;7.40;99.90;;;;;;5026312;28;20511;-59
2024/02/10 10:49:52;;;;;;;20.63;15.00;;;7.40;99.90;;;;;;5025969;28;20474;-58
2024/02/10 10:52:20;;;;;;;24.30;14.60;;;7.50;99.90;;;;;;5026497;28;21243;-58
2024/02/10 10:54:50;;;;;;;22.87;14.70;;;7.50;99.90;;;;;;5024861;28;20500;-60
2024/02/10 10:57:21;;;;;;;23.80;15.47;;;7.60;99.90;;;;;;5025167;28;22257;-59
2024/02/10 10:59:54;;;;;;;25.93;15.67;;;7.60;99.90;;;;;;5024216;28;20475;-63
2024/02/10 11:02:25;;;;;;;23.90;15.63;;;7.70;99.90;;;;;;5024709;28;21105;-64
2024/02/10 11:05:03;;;;;;;25.20;15.40;;;7.70;99.90;;;;;;5029263;28;20488;-64
2024/02/10 11:07:36;;;;;;;21.70;13.90;;;7.80;99.90;;;;;;5033484;28;20816;-64
2024/02/10 11:10:06;;;;;;;23.30;14.80;;;7.90;99.90;;;;;;5030255;28;20857;-64
2024/02/10 11:12:35;;;;;;;25.53;16.07;;;7.90;99.90;;;;;;5031076;28;20557;-62
2024/02/10 11:15:05;;;;;;;24.17;15.70;;;7.90;99.90;;;;;;5032657;28;20837;-61
2024/02/10 11:17:35;;;;;;;23.37;14.60;;;7.90;99.90;;;;;;5023120;28;20474;-62
2024/02/10 11:20:07;;;;;;;24.73;15.83;;;7.90;99.90;;;;;;5023857;28;20544;-61
2024/02/10 11:22:36;;;;;;;23.53;15.60;;;7.90;99.90;;;;;;5023910;28;20496;-61
2024/02/10 11:25:10;;;;;;;24.30;15.70;;;7.90;99.90;;;;;;5021756;28;21213;-64
2024/02/10 11:27:43;;;;;;;25.03;15.43;;;7.90;99.90;;;;;;5027958;28;20573;-63
2024/02/10 11:30:12;;;;;;;27.10;15.30;;;7.90;99.90;;;;;;5026170;28;20474;-63
2024/02/10 11:32:42;;;;;;;21.83;15.33;;;7.90;99.90;;;;;;5030107;28;20488;-61
2024/02/10 11:35:12;;;;;;;21.07;14.20;;;7.90;99.90;;;;;;5023464;28;20476;-61
2024/02/10 11:37:41;;;;;;;22.33;15.30;;;7.90;99.90;;;;;;5020785;28;20479;-65
2024/02/10 11:40:19;;;;;;;26.67;17.07;;;7.90;99.90;;;;;;5017618;28;20475;-62
2024/02/10 11:42:47;;;;;;;25.73;15.00;;;8.00;99.90;;;;;;5021193;28;20489;-65
2024/02/10 11:45:17;;;;;;;26.07;15.70;;;8.00;99.90;;;;;;5021272;28;20573;-60
2024/02/10 11:47:53;;;;;;;24.37;15.77;;;8.00;99.90;;;;;;5019913;28;20543;-66
2024/02/10 11:50:21;;;;;;;25.83;16.77;;;8.00;99.90;;;;;;5021879;28;20481;-66
2024/02/10 11:52:50;;;;;;;22.90;15.20;;;8.00;99.90;;;;;;5027165;28;20482;-67
2024/02/10 11:55:19;;;;;;;23.70;15.73;;;8.10;99.90;;;;;;5027601;28;20875;-66
2024/02/10 11:57:48;;;;;;;27.30;15.30;;;8.10;99.90;;;;;;5020529;28;20959;-65
2024/02/10 12:00:19;;;;;;;26.37;14.77;;;8.10;99.90;;;;;;5027061;28;20532;-66
2024/02/10 12:02:51;;;;;;;22.90;14.60;;;8.10;99.90;;;;;;5022319;28;20489;-63
2024/02/10 12:05:21;;;;;;;24.60;15.80;;;8.10;99.90;;;;;;5022208;28;21169;-65
2024/02/10 12:07:49;;;;;;;24.10;15.17;;;8.10;99.90;;;;;;5023164;28;20503;-66
2024/02/10 12:10:17;;;;;;;26.87;15.50;;;8.20;99.90;;;;;;5021150;28;20478;-62
2024/02/10 12:12:52;;;;;;;23.10;14.90;;;8.20;99.90;;;;;;5024819;28;20526;-62
2024/02/10 12:15:21;;;;;;;25.20;14.93;;;8.20;99.90;;;;;;5024461;28;20473;-63
2024/02/10 12:17:49;;;;;;;21.40;14.43;;;8.30;99.90;;;;;;5025213;28;20482;-65
2024/02/10 12:20:18;;;;;;;28.10;15.20;;;8.30;99.90;;;;;;5025946;28;20577;-65
2024/02/10 12:22:48;;;;;;;21.50;14.90;;;8.30;99.90;;;;;;5023509;28;21201;-65
2024/02/10 12:25:16;;;;;;;21.73;14.73;;;8.30;99.90;;;;;;5028362;28;20494;-65
2024/02/10 12:27:44;;;;;;;21.53;13.50;;;8.40;99.90;;;;;;5026505;28;20912;-64
2024/02/10 12:30:14;;;;;;;20.97;14.13;;;8.40;99.90;;;;;;5027628;28;21143;-65
2024/02/10 12:32:42;;;;;;;19.13;13.23;;;8.40;99.90;;;;;;5027390;28;20991;-64
2024/02/10 12:35:16;;;;;;;21.83;13.93;;;8.40;99.90;;;;;;5026179;28;20458;-61
2024/02/10 12:37:46;;;;;;;21.57;15.50;;;8.40;99.90;;;;;;5026213;28;20473;-61
2024/02/10 12:40:21;;;;;;;22.37;14.20;;;8.40;99.90;;;;;;5019375;28;20546;-65
2024/02/10 12:42:50;;;;;;;21.40;13.80;;;8.40;99.90;;;;;;5025320;28;21000;-62
2024/02/10 12:45:19;;;;;;;21.57;14.07;;;8.50;99.90;;;;;;5026173;28;20522;-61